createdAt,value
2023-05-13T00:01:54.427Z,17.09
2023-05-13T00:04:24.338Z,17.41
2023-05-13T00:06:52.892Z,17.46
2023-05-13T00:09:21.453Z,17.46
2023-05-13T00:11:50.014Z,17.40
2023-05-13T00:14:18.564Z,17.45
2023-05-13T00:16:47.251Z,17.52
2023-05-13T00:19:15.924Z,17.60
2023-05-13T00:21:45.827Z,17.63
2023-05-13T00:24:14.383Z,17.66
2023-05-13T00:26:43.139Z,17.74
2023-05-13T00:29:11.665Z,17.76
2023-05-13T00:31:40.206Z,17.66
2023-05-13T00:34:08.781Z,17.55
2023-05-13T00:36:37.445Z,17.30
2023-05-13T00:39:07.786Z,17.56
2023-05-13T00:41:36.356Z,17.36
2023-05-13T00:44:05.054Z,17.49
2023-05-13T00:46:34.096Z,17.50
2023-05-13T00:49:03.223Z,17.06
2023-05-13T00:51:33.623Z,16.49
2023-05-13T00:54:02.153Z,16.44
2023-05-13T00:56:32.030Z,16.94
2023-05-13T00:59:00.613Z,17.30
2023-05-13T01:01:36.024Z,17.23
2023-05-13T01:04:15.264Z,17.36
2023-05-13T01:06:52.859Z,17.06
2023-05-13T01:09:29.392Z,17.27
2023-05-13T01:12:06.674Z,16.96
2023-05-13T01:14:39.816Z,17.11
2023-05-13T01:17:13.172Z,17.12
2023-05-13T01:19:45.815Z,17.17
2023-05-13T01:22:15.901Z,17.18
2023-05-13T01:24:45.781Z,17.22
2023-05-13T01:27:15.055Z,17.18
2023-05-13T01:29:43.945Z,17.23
2023-05-13T01:32:13.725Z,17.28
2023-05-13T01:34:43.421Z,17.28
2023-05-13T01:37:12.094Z,17.24
2023-05-13T01:39:42.990Z,17.23
2023-05-13T01:42:11.638Z,17.23
2023-05-13T01:44:40.161Z,17.23
2023-05-13T01:47:08.786Z,17.23
2023-05-13T01:49:37.327Z,17.16
2023-05-13T01:52:06.184Z,17.10
2023-05-13T01:54:34.745Z,17.07
2023-05-13T01:57:04.914Z,17.07
2023-05-13T01:59:33.659Z,16.98
2023-05-13T02:02:02.245Z,17.00
2023-05-13T02:04:31.046Z,16.99
2023-05-13T02:06:59.573Z,16.63
2023-05-13T02:09:28.120Z,16.89
2023-05-13T02:11:56.713Z,16.89
2023-05-13T02:14:26.624Z,16.82
2023-05-13T02:16:55.201Z,16.88
2023-05-13T02:19:24.798Z,16.95
2023-05-13T02:21:53.332Z,16.94
2023-05-13T02:24:22.069Z,16.90
2023-05-13T02:26:50.623Z,16.90
2023-05-13T02:29:19.160Z,16.85
2023-05-13T02:31:49.183Z,16.83
2023-05-13T02:34:17.747Z,16.84
2023-05-13T02:36:46.290Z,16.85
2023-05-13T02:39:14.799Z,16.81
2023-05-13T02:41:44.516Z,16.81
2023-05-13T02:44:13.157Z,16.83
2023-05-13T02:46:41.688Z,16.87
2023-05-13T02:49:11.661Z,16.86
2023-05-13T02:51:40.209Z,16.78
2023-05-13T02:54:08.946Z,16.02
2023-05-13T02:56:37.474Z,16.41
2023-05-13T02:59:06.008Z,16.58
2023-05-13T03:01:34.847Z,16.68
2023-05-13T03:04:03.483Z,16.81
2023-05-13T03:06:33.395Z,16.71
2023-05-13T03:09:01.930Z,16.68
2023-05-13T03:11:30.545Z,16.70
2023-05-13T03:13:59.082Z,16.22
2023-05-13T03:16:27.745Z,16.44
2023-05-13T03:18:56.362Z,16.57
2023-05-13T03:21:25.056Z,16.34
2023-05-13T03:23:54.977Z,16.48
2023-05-13T03:26:23.681Z,16.58
2023-05-13T03:28:52.258Z,15.89
2023-05-13T03:31:20.852Z,16.30
2023-05-13T03:33:49.441Z,16.20
2023-05-13T03:36:18.032Z,15.94
2023-05-13T03:38:46.563Z,16.26
2023-05-13T03:41:17.583Z,16.39
2023-05-13T03:43:46.181Z,16.34
2023-05-13T03:46:14.724Z,16.38
2023-05-13T03:48:43.426Z,16.37
2023-05-13T03:51:11.994Z,16.39
2023-05-13T03:53:40.829Z,16.44
2023-05-13T03:56:09.494Z,16.43
2023-05-13T03:58:39.589Z,16.20
2023-05-13T04:01:09.282Z,16.38
2023-05-13T04:03:37.838Z,16.41
2023-05-13T04:06:06.693Z,16.47
2023-05-13T04:08:35.346Z,16.42
2023-05-13T04:11:03.953Z,16.52
2023-05-13T04:13:33.721Z,16.56
2023-05-13T04:16:03.742Z,16.58
2023-05-13T04:18:32.791Z,16.57
2023-05-13T04:21:01.377Z,16.32
2023-05-13T04:23:29.897Z,16.40
2023-05-13T04:25:58.497Z,15.94
2023-05-13T04:28:27.126Z,15.87
2023-05-13T04:30:55.882Z,15.76
2023-05-13T04:33:25.772Z,15.79
2023-05-13T04:35:54.381Z,16.12
2023-05-13T04:38:23.025Z,15.41
2023-05-13T04:40:51.587Z,16.05
2023-05-13T04:43:20.162Z,15.86
2023-05-13T04:45:49.820Z,16.58
2023-05-13T04:48:18.367Z,17.78
2023-05-13T04:50:48.860Z,18.67
2023-05-13T04:53:18.035Z,19.17
2023-05-13T04:55:49.476Z,19.54
2023-05-13T04:58:18.145Z,18.77
2023-05-13T05:00:46.853Z,19.11
2023-05-13T05:03:15.480Z,19.89
2023-05-13T05:05:44.059Z,19.06
2023-05-13T05:08:14.005Z,20.22
2023-05-13T05:10:43.504Z,20.37
2023-05-13T05:13:13.791Z,19.92
2023-05-13T05:15:43.137Z,20.60
2023-05-13T05:18:14.481Z,20.65
2023-05-13T05:20:43.952Z,20.04
2023-05-13T05:23:14.636Z,19.15
2023-05-13T05:25:43.797Z,19.49
2023-05-13T05:28:14.423Z,20.43
2023-05-13T05:30:43.659Z,20.63
2023-05-13T05:33:12.945Z,20.29
2023-05-13T05:35:42.298Z,21.40
2023-05-13T05:38:14.878Z,21.36
2023-05-13T05:40:45.825Z,21.33
2023-05-13T05:43:16.829Z,20.90
2023-05-13T05:45:47.434Z,20.97
2023-05-13T05:48:19.288Z,19.10
2023-05-13T05:50:49.369Z,18.32
2023-05-13T05:53:19.714Z,19.57
2023-05-13T05:55:49.375Z,18.13
2023-05-13T05:58:27.285Z,17.01
2023-05-13T06:00:58.761Z,17.00
2023-05-13T06:03:30.249Z,17.45
2023-05-13T06:05:59.458Z,18.24
2023-05-13T06:08:31.399Z,18.19
2023-05-13T06:11:00.533Z,17.96
2023-05-13T06:13:31.014Z,18.14
2023-05-13T06:16:00.775Z,16.96
2023-05-13T06:18:30.786Z,17.58
2023-05-13T06:21:00.207Z,17.62
2023-05-13T06:23:30.801Z,17.79
2023-05-13T06:26:00.407Z,18.24
2023-05-13T06:28:32.064Z,19.18
2023-05-13T06:31:01.193Z,19.57
2023-05-13T06:33:29.999Z,18.94
2023-05-13T06:36:00.128Z,17.64
2023-05-13T06:38:32.062Z,18.34
2023-05-13T06:41:01.040Z,18.41
2023-05-13T06:43:30.097Z,18.07
2023-05-13T06:45:59.581Z,18.28
2023-05-13T06:48:28.676Z,18.49
2023-05-13T06:51:00.693Z,19.09
2023-05-13T06:53:33.787Z,19.14
2023-05-13T06:56:03.042Z,18.90
2023-05-13T06:58:31.847Z,19.59
2023-05-13T07:01:01.269Z,19.27
2023-05-13T07:03:30.244Z,19.62
2023-05-13T07:05:59.146Z,20.04
2023-05-13T07:08:29.218Z,19.85
2023-05-13T07:10:57.965Z,19.35
2023-05-13T07:13:27.614Z,19.31
2023-05-13T07:16:00.980Z,20.69
2023-05-13T07:18:30.787Z,20.78
2023-05-13T07:20:59.862Z,19.91
2023-05-13T07:23:31.758Z,20.35
2023-05-13T07:26:00.538Z,20.46
2023-05-13T07:28:31.453Z,19.85
2023-05-13T07:31:05.322Z,20.65
2023-05-13T07:33:34.486Z,19.77
2023-05-13T07:36:04.327Z,21.38
2023-05-13T07:38:35.385Z,21.50
2023-05-13T07:41:03.949Z,20.76
2023-05-13T07:43:35.182Z,21.18
2023-05-13T07:46:04.454Z,21.17
2023-05-13T07:48:34.866Z,21.04
2023-05-13T07:51:04.015Z,20.43
2023-05-13T07:53:36.058Z,20.27
2023-05-13T07:56:05.601Z,20.63
2023-05-13T07:58:35.534Z,21.51
2023-05-13T08:01:11.512Z,20.72
2023-05-13T08:03:42.108Z,20.37
2023-05-13T08:06:11.723Z,20.42
2023-05-13T08:08:43.219Z,21.51
2023-05-13T08:11:12.340Z,22.48
2023-05-13T08:13:41.148Z,22.11
2023-05-13T08:16:10.377Z,20.54
2023-05-13T08:18:39.296Z,20.51
2023-05-13T08:21:08.406Z,19.87
2023-05-13T08:23:45.576Z,19.57
2023-05-13T08:26:17.147Z,19.07
2023-05-13T08:28:54.791Z,17.98
2023-05-13T08:31:25.599Z,18.80
2023-05-13T08:33:56.225Z,18.64
2023-05-13T08:36:26.513Z,19.08
2023-05-13T08:38:55.499Z,20.29
2023-05-13T08:41:26.065Z,21.17
2023-05-13T08:43:59.168Z,19.65
2023-05-13T08:46:30.337Z,19.48
2023-05-13T08:49:00.669Z,19.66
2023-05-13T08:51:32.164Z,19.63
2023-05-13T08:54:02.898Z,19.65
2023-05-13T08:56:36.008Z,19.28
2023-05-13T08:59:05.038Z,19.96
2023-05-13T09:01:35.545Z,21.72
2023-05-13T09:04:10.155Z,22.62
2023-05-13T09:06:41.400Z,21.50
2023-05-13T09:09:10.649Z,21.10
2023-05-13T09:11:44.736Z,21.90
2023-05-13T09:14:13.965Z,22.59
2023-05-13T09:16:45.469Z,22.53
2023-05-13T09:19:14.606Z,22.24
2023-05-13T09:21:47.127Z,22.61
2023-05-13T09:24:19.001Z,23.57
2023-05-13T09:26:53.440Z,23.12
2023-05-13T09:29:30.169Z,23.51
2023-05-13T09:32:03.746Z,23.15
2023-05-13T09:34:34.686Z,23.51
2023-05-13T09:37:09.454Z,23.14
2023-05-13T09:39:46.588Z,23.12
2023-05-13T09:42:23.516Z,23.00
2023-05-13T09:44:52.620Z,23.75
2023-05-13T09:47:21.693Z,24.10
2023-05-13T09:50:00.180Z,23.21
2023-05-13T09:52:31.416Z,23.21
2023-05-13T09:55:02.044Z,23.25
2023-05-13T09:57:32.483Z,23.32
2023-05-13T10:00:05.638Z,23.83
2023-05-13T10:02:35.299Z,23.85
2023-05-13T10:05:07.441Z,23.56
2023-05-13T10:07:38.096Z,22.90
2023-05-13T10:10:11.089Z,23.46
2023-05-13T10:12:44.849Z,23.62
2023-05-13T10:15:15.580Z,23.18
2023-05-13T10:17:45.189Z,23.32
2023-05-13T10:20:14.552Z,23.32
2023-05-13T10:22:46.399Z,23.19
2023-05-13T10:25:16.743Z,23.62
2023-05-13T10:27:52.511Z,24.18
2023-05-13T10:30:26.307Z,23.70
2023-05-13T10:32:56.860Z,24.10
2023-05-13T10:35:30.174Z,23.78
2023-05-13T10:38:12.415Z,23.37
2023-05-13T10:41:15.683Z,22.92
2023-05-13T10:43:45.884Z,23.41
2023-05-13T10:46:14.936Z,23.01
2023-05-13T10:48:49.401Z,22.93
2023-05-13T10:51:23.886Z,23.04
2023-05-13T10:53:54.506Z,24.02
2023-05-13T10:56:25.602Z,23.89
2023-05-13T10:59:05.407Z,24.23
2023-05-13T11:01:39.202Z,23.61
2023-05-13T11:04:08.598Z,23.36
2023-05-13T11:06:39.609Z,23.37
2023-05-13T11:09:10.312Z,23.56
2023-05-13T11:11:41.210Z,23.42
2023-05-13T11:14:18.551Z,23.74
2023-05-13T11:16:50.350Z,22.92
2023-05-13T11:19:23.738Z,23.42
2023-05-13T11:21:54.939Z,23.75
2023-05-13T11:24:25.127Z,23.91
2023-05-13T11:26:57.364Z,22.93
2023-05-13T11:29:35.975Z,23.70
2023-05-13T11:32:08.758Z,23.40
2023-05-13T11:34:37.362Z,23.23
2023-05-13T11:37:11.761Z,23.40
2023-05-13T11:39:42.356Z,22.99
2023-05-13T11:42:12.651Z,23.59
2023-05-13T11:44:49.328Z,23.18
2023-05-13T11:47:28.705Z,23.14
2023-05-13T11:49:57.480Z,23.64
2023-05-13T11:52:25.897Z,23.79
2023-05-13T11:55:00.056Z,23.91
2023-05-13T11:57:32.966Z,24.17
2023-05-13T12:00:05.827Z,23.72
2023-05-13T12:02:37.765Z,23.58
2023-05-13T12:05:09.648Z,23.97
2023-05-13T12:07:39.999Z,23.23
2023-05-13T12:10:09.542Z,23.00
2023-05-13T12:12:41.464Z,22.74
2023-05-13T12:15:14.978Z,22.94
2023-05-13T12:17:43.983Z,22.98
2023-05-13T12:20:14.763Z,23.45
2023-05-13T12:23:00.512Z,23.41
2023-05-13T12:25:48.002Z,23.52
2023-05-13T12:28:19.165Z,23.96
2023-05-13T12:30:59.798Z,23.60
2023-05-13T12:33:30.410Z,23.51
2023-05-13T12:36:19.407Z,23.16
2023-05-13T12:39:02.231Z,22.88
2023-05-13T12:41:33.361Z,22.50
2023-05-13T12:44:04.280Z,22.92
2023-05-13T12:46:35.154Z,23.89
2023-05-13T12:49:05.986Z,23.62
2023-05-13T12:51:34.929Z,23.51
2023-05-13T12:54:03.476Z,24.04
2023-05-13T12:56:32.323Z,24.31
2023-05-13T12:59:00.885Z,23.80
2023-05-13T13:01:30.090Z,23.50
2023-05-13T13:04:00.238Z,23.70
2023-05-13T13:06:29.901Z,23.92
2023-05-13T13:08:58.687Z,23.97
2023-05-13T13:11:27.735Z,23.85
2023-05-13T13:13:56.332Z,23.37
2023-05-13T13:16:25.209Z,22.83
2023-05-13T13:18:55.863Z,22.59
2023-05-13T13:21:26.334Z,22.89
2023-05-13T13:23:54.905Z,22.48
2023-05-13T13:26:24.433Z,22.44
2023-05-13T13:28:52.979Z,22.75
2023-05-13T13:31:21.971Z,23.57
2023-05-13T13:33:50.820Z,23.35
2023-05-13T13:36:19.505Z,22.71
2023-05-13T13:38:51.023Z,22.62
2023-05-13T13:41:19.939Z,22.97
2023-05-13T13:43:48.771Z,22.86
2023-05-13T13:46:17.420Z,22.46
2023-05-13T13:48:46.727Z,23.45
2023-05-13T13:51:15.613Z,23.98
2023-05-13T13:53:44.131Z,23.30
2023-05-13T13:56:15.837Z,22.78
2023-05-13T13:58:45.600Z,22.48
2023-05-13T14:01:15.974Z,22.46
2023-05-13T14:03:44.659Z,23.05
2023-05-13T14:06:13.634Z,23.65
2023-05-13T14:08:42.118Z,23.42
2023-05-13T14:11:12.072Z,23.00
2023-05-13T14:13:42.339Z,22.97
2023-05-13T14:16:12.214Z,22.56
2023-05-13T14:18:40.688Z,22.58
2023-05-13T14:21:09.372Z,22.78
2023-05-13T14:23:38.712Z,22.32
2023-05-13T14:26:10.085Z,22.49
2023-05-13T14:28:39.113Z,22.42
2023-05-13T14:31:09.227Z,22.03
2023-05-13T14:33:39.165Z,19.28
2023-05-13T14:36:14.094Z,19.03
2023-05-13T14:38:43.176Z,19.13
2023-05-13T14:41:12.896Z,19.42
2023-05-13T14:43:42.070Z,20.25
2023-05-13T14:46:12.927Z,21.38
2023-05-13T14:48:41.682Z,22.62
2023-05-13T14:51:12.338Z,23.19
2023-05-13T14:53:43.454Z,23.70
2023-05-13T14:56:12.287Z,23.70
2023-05-13T14:58:41.213Z,22.13
2023-05-13T15:01:11.516Z,21.79
2023-05-13T15:03:40.861Z,21.39
2023-05-13T15:06:10.218Z,21.63
2023-05-13T15:08:39.615Z,21.19
2023-05-13T15:11:08.610Z,21.31
2023-05-13T15:13:39.462Z,21.37
2023-05-13T15:16:09.300Z,21.35
2023-05-13T15:18:39.895Z,21.10
2023-05-13T15:21:09.034Z,20.86
2023-05-13T15:23:37.864Z,20.37
2023-05-13T15:26:07.140Z,20.61
2023-05-13T15:28:35.825Z,20.35
2023-05-13T15:31:05.087Z,20.88
2023-05-13T15:33:34.596Z,20.66
2023-05-13T15:36:05.803Z,19.22
2023-05-13T15:38:34.665Z,19.29
2023-05-13T15:41:04.332Z,19.07
2023-05-13T15:43:34.554Z,18.73
2023-05-13T15:46:03.509Z,18.69
2023-05-13T15:48:32.658Z,19.26
2023-05-13T15:51:05.007Z,19.14
2023-05-13T15:53:36.205Z,19.63
2023-05-13T15:56:05.365Z,19.48
2023-05-13T15:58:34.425Z,19.43
2023-05-13T16:01:03.732Z,20.13
2023-05-13T16:03:36.559Z,19.97
2023-05-13T16:06:12.182Z,20.21
2023-05-13T16:08:43.061Z,20.12
2023-05-13T16:11:13.141Z,20.55
2023-05-13T16:13:42.007Z,20.67
2023-05-13T16:16:10.703Z,20.38
2023-05-13T16:18:40.054Z,19.63
2023-05-13T16:21:09.640Z,20.20
2023-05-13T16:23:38.414Z,20.79
2023-05-13T16:26:08.924Z,20.91
2023-05-13T16:28:37.718Z,21.28
2023-05-13T16:31:06.810Z,21.14
2023-05-13T16:33:36.441Z,20.89
2023-05-13T16:36:06.806Z,20.78
2023-05-13T16:38:36.711Z,20.97
2023-05-13T16:41:08.410Z,20.47
2023-05-13T16:43:37.301Z,21.37
2023-05-13T16:46:06.778Z,21.27
2023-05-13T16:48:35.802Z,21.13
2023-05-13T16:51:09.900Z,20.71
2023-05-13T16:53:38.949Z,20.66
2023-05-13T16:56:10.667Z,20.75
2023-05-13T16:58:39.377Z,19.53
2023-05-13T17:01:08.374Z,20.65
2023-05-13T17:03:37.443Z,20.37
2023-05-13T17:06:07.771Z,21.31
2023-05-13T17:08:38.034Z,21.67
2023-05-13T17:11:16.124Z,21.78
2023-05-13T17:13:47.010Z,21.60
2023-05-13T17:16:16.377Z,21.84
2023-05-13T17:18:45.648Z,20.95
2023-05-13T17:21:16.038Z,20.36
2023-05-13T17:23:45.536Z,20.25
2023-05-13T17:26:16.963Z,20.37
2023-05-13T17:28:46.244Z,20.37
2023-05-13T17:31:18.057Z,20.29
2023-05-13T17:33:48.062Z,19.91
2023-05-13T17:36:17.375Z,20.00
2023-05-13T17:38:47.071Z,20.57
2023-05-13T17:41:17.941Z,21.00
2023-05-13T17:43:48.018Z,20.78
2023-05-13T17:46:16.920Z,21.05
2023-05-13T17:48:46.662Z,21.45
2023-05-13T17:51:15.762Z,20.64
2023-05-13T17:53:44.547Z,20.52
2023-05-13T17:56:14.376Z,21.17
2023-05-13T17:58:44.918Z,21.57
2023-05-13T18:01:14.035Z,21.46
2023-05-13T18:03:42.793Z,21.80
2023-05-13T18:06:13.080Z,21.94
2023-05-13T18:08:42.355Z,21.14
2023-05-13T18:11:11.761Z,20.04
2023-05-13T18:13:40.712Z,20.28
2023-05-13T18:16:12.592Z,20.95
2023-05-13T18:18:41.668Z,21.47
2023-05-13T18:21:12.642Z,21.16
2023-05-13T18:23:44.897Z,19.94
2023-05-13T18:26:14.065Z,20.20
2023-05-13T18:28:45.205Z,21.07
2023-05-13T18:31:16.008Z,21.50
2023-05-13T18:33:46.634Z,21.61
2023-05-13T18:36:16.038Z,21.37
2023-05-13T18:38:46.063Z,21.55
2023-05-13T18:41:15.664Z,21.62
2023-05-13T18:43:44.497Z,21.63
2023-05-13T18:46:15.169Z,21.44
2023-05-13T18:48:45.751Z,21.46
2023-05-13T18:51:18.802Z,21.42
2023-05-13T18:53:57.375Z,21.39
2023-05-13T18:56:27.995Z,21.35
2023-05-13T18:58:57.396Z,21.37
2023-05-13T19:01:28.571Z,21.29
2023-05-13T19:03:58.828Z,21.23
2023-05-13T19:06:28.031Z,21.21
2023-05-13T19:08:58.641Z,21.17
2023-05-13T19:11:27.591Z,21.17
2023-05-13T19:13:57.066Z,21.15
2023-05-13T19:16:28.379Z,21.12
2023-05-13T19:19:01.335Z,21.05
2023-05-13T19:21:30.206Z,21.02
2023-05-13T19:24:00.622Z,21.01
2023-05-13T19:26:29.733Z,21.01
2023-05-13T19:28:59.230Z,20.94
2023-05-13T19:31:30.683Z,20.93
2023-05-13T19:34:03.480Z,20.94
2023-05-13T19:36:34.991Z,20.92
2023-05-13T19:39:04.103Z,20.91
2023-05-13T19:41:34.603Z,20.88
2023-05-13T19:44:03.650Z,20.85
2023-05-13T19:46:34.580Z,20.82
2023-05-13T19:49:03.939Z,20.82
2023-05-13T19:51:34.139Z,20.79
2023-05-13T19:54:03.362Z,20.73
2023-05-13T19:56:37.999Z,20.70
2023-05-13T19:59:07.113Z,20.69
2023-05-13T20:01:38.390Z,20.72
2023-05-13T20:04:08.102Z,20.22
2023-05-13T20:06:37.317Z,20.29
2023-05-13T20:09:06.636Z,20.39
2023-05-13T20:11:38.615Z,20.47
2023-05-13T20:14:07.860Z,20.50
2023-05-13T20:16:38.889Z,20.51
2023-05-13T20:19:08.597Z,20.51
2023-05-13T20:21:37.880Z,20.48
2023-05-13T20:24:07.144Z,20.48
2023-05-13T20:26:36.232Z,20.50
2023-05-13T20:29:06.504Z,20.45
2023-05-13T20:31:38.083Z,20.43
2023-05-13T20:34:08.039Z,20.38
2023-05-13T20:36:39.092Z,20.37
2023-05-13T20:39:13.907Z,20.33
2023-05-13T20:41:45.706Z,20.32
2023-05-13T20:44:16.161Z,20.32
2023-05-13T20:46:47.352Z,20.29
2023-05-13T20:49:16.590Z,20.28
2023-05-13T20:51:47.036Z,20.21
2023-05-13T20:54:16.695Z,20.19
2023-05-13T20:56:45.603Z,20.15
2023-05-13T20:59:15.124Z,20.15
2023-05-13T21:01:47.682Z,20.13
2023-05-13T21:04:17.357Z,20.11
2023-05-13T21:06:46.842Z,20.10
2023-05-13T21:09:16.580Z,20.10
2023-05-13T21:11:46.126Z,19.99
2023-05-13T21:14:15.545Z,20.01
2023-05-13T21:16:46.391Z,20.01
2023-05-13T21:19:22.116Z,19.98
2023-05-13T21:21:51.574Z,19.98
2023-05-13T21:24:22.137Z,20.04
2023-05-13T21:26:51.521Z,20.06
2023-05-13T21:29:20.410Z,20.09
2023-05-13T21:31:50.918Z,20.10
2023-05-13T21:34:19.878Z,20.14
2023-05-13T21:36:49.065Z,20.17
2023-05-13T21:39:18.128Z,20.17
2023-05-13T21:41:48.062Z,20.14
2023-05-13T21:44:18.658Z,20.18
2023-05-13T21:46:47.861Z,20.14
2023-05-13T21:49:20.429Z,20.10
2023-05-13T21:51:49.174Z,20.10
2023-05-13T21:54:19.165Z,20.05
2023-05-13T21:56:49.354Z,20.06
2023-05-13T21:59:18.790Z,20.10
2023-05-13T22:01:47.928Z,20.11
2023-05-13T22:04:18.576Z,20.29
2023-05-13T22:06:47.626Z,20.23
2023-05-13T22:09:16.813Z,20.18
2023-05-13T22:11:46.950Z,20.11
2023-05-13T22:14:16.349Z,20.06
2023-05-13T22:16:54.512Z,20.01
2023-05-13T22:19:34.607Z,20.05
2023-05-13T22:22:03.639Z,19.96
2023-05-13T22:24:34.073Z,19.95
2023-05-13T22:27:03.829Z,19.90
2023-05-13T22:29:34.734Z,19.86
2023-05-13T22:32:04.788Z,19.81
2023-05-13T22:34:35.914Z,19.74
2023-05-13T22:37:04.872Z,19.82
2023-05-13T22:39:33.830Z,19.78
2023-05-13T22:42:02.832Z,19.78
2023-05-13T22:44:32.136Z,19.72
2023-05-13T22:47:01.024Z,19.69
2023-05-13T22:49:29.851Z,19.72
2023-05-13T22:52:00.585Z,19.75
2023-05-13T22:54:29.952Z,19.76
2023-05-13T22:56:59.475Z,19.86
2023-05-13T22:59:30.007Z,19.71
2023-05-13T23:01:59.676Z,19.70
2023-05-13T23:04:28.927Z,19.67
2023-05-13T23:06:59.554Z,19.61
2023-05-13T23:09:28.275Z,19.57
2023-05-13T23:11:57.455Z,19.54
2023-05-13T23:14:27.748Z,19.49
2023-05-13T23:16:56.567Z,19.45
2023-05-13T23:19:26.561Z,19.37
2023-05-13T23:21:55.905Z,19.40
2023-05-13T23:24:28.639Z,19.35
2023-05-13T23:26:57.581Z,19.28
2023-05-13T23:29:27.962Z,19.30
2023-05-13T23:31:57.252Z,19.29
2023-05-13T23:34:26.597Z,19.27
2023-05-13T23:36:55.644Z,19.20
2023-05-13T23:39:26.121Z,19.18
2023-05-13T23:41:55.347Z,19.17
2023-05-13T23:44:24.275Z,19.15
2023-05-13T23:46:53.879Z,19.08
2023-05-13T23:49:22.789Z,19.10
2023-05-13T23:51:51.871Z,18.80
2023-05-13T23:54:20.748Z,18.87
2023-05-13T23:56:51.605Z,17.78
2023-05-13T23:59:20.701Z,17.96
